Time;durP1;ratioP1;P1;durP2;ratioP2;P2;SDS_P1;SDS_P2;PMS_P1;PMS_P2;Temp;Humidity;BMP_temperature;BMP_pressure;BME280_temperature;BME280_humidity;BME280_pressure;Samples;Min_cycle;Max_cycle;Signal;HPM_P1;HPM_P2
2022/05/08 00:00:11;;;;;;;5.82;3.85;;;;;;;10.41;67.69;93532.13;5091215;28;20047;-82
2022/05/08 00:02:40;;;;;;;5.05;3.70;;;;;;;10.45;67.35;93535.13;5090976;28;20135;-82
2022/05/08 00:05:08;;;;;;;4.68;3.92;;;;;;;10.24;70.03;93527.41;5090949;28;20040;-83
2022/05/08 00:07:34;;;;;;;5.07;3.60;;;;;;;10.21;69.81;93525.25;5091049;28;20070;-81
2022/05/08 00:10:01;;;;;;;4.80;3.05;;;;;;;9.95;73.42;93524.28;5090588;28;20048;-81
2022/05/08 00:12:28;;;;;;;6.28;3.47;;;;;;;9.79;75.11;93522.91;5090667;28;20056;-82
2022/05/08 00:14:55;;;;;;;3.95;2.90;;;;;;;9.80;73.91;93515.97;5090983;28;20044;-82
2022/05/08 00:17:23;;;;;;;5.82;3.05;;;;;;;9.45;77.43;93517.72;5090517;28;20051;-83
2022/05/08 00:19:50;;;;;;;5.35;2.80;;;;;;;9.27;78.61;93520.06;5090816;28;20089;-82
2022/05/08 00:22:16;;;;;;;4.45;2.67;;;;;;;9.18;79.39;93522.81;5090744;28;20063;-82
2022/05/08 00:24:43;;;;;;;5.40;3.20;;;;;;;9.27;78.36;93522.63;5090756;28;20048;-82
2022/05/08 00:27:10;;;;;;;6.55;3.10;;;;;;;9.30;78.25;93522.25;5090602;28;20048;-82
2022/05/08 00:29:37;;;;;;;4.55;3.10;;;;;;;9.31;78.19;93528.94;5091200;28;20051;-82
2022/05/08 00:32:04;;;;;;;3.55;2.85;;;;;;;9.12;79.14;93531.22;5093830;28;20048;-82
2022/05/08 00:34:32;;;;;;;5.65;3.30;;;;;;;9.11;79.41;93521.19;5094710;28;20090;-84
2022/05/08 00:36:59;;;;;;;4.70;2.80;;;;;;;8.98;79.48;93511.69;5095076;28;20489;-81
2022/05/08 00:39:26;;;;;;;5.63;3.38;;;;;;;8.99;78.16;93500.44;5084569;28;20488;-83
2022/05/08 00:41:53;;;;;;;4.68;3.13;;;;;;;9.28;77.30;93527.56;5084362;28;20089;-82
2022/05/08 00:44:20;;;;;;;5.22;3.35;;;;;;;9.40;76.86;93521.84;5082857;28;20527;-82
2022/05/08 00:46:48;;;;;;;4.63;2.72;;;;;;;9.53;75.75;93518.53;5093300;28;20052;-82
2022/05/08 00:49:15;;;;;;;6.28;3.33;;;;;;;9.56;75.18;93508.66;5094567;28;20044;-82
2022/05/08 00:51:48;;;;;;;5.03;3.28;;;;;;;9.68;74.41;93521.69;5094890;28;20074;-82
2022/05/08 00:54:15;;;;;;;7.30;3.75;;;;;;;9.74;73.54;93523.50;5094278;28;20100;-81
2022/05/08 00:56:43;;;;;;;6.53;3.60;;;;;;;9.77;72.46;93524.88;5094561;28;20406;-82
2022/05/08 00:59:10;;;;;;;5.78;4.20;;;;;;;9.77;71.92;93524.88;5094277;28;20085;-82
2022/05/08 01:01:37;;;;;;;6.65;3.53;;;;;;;9.69;72.99;93519.94;5094485;28;20048;-81
2022/05/08 01:04:04;;;;;;;5.68;3.75;;;;;;;9.65;72.90;93529.78;5094166;28;20472;-82
2022/05/08 01:06:33;;;;;;;5.38;3.70;;;;;;;9.62;73.26;93525.84;5094065;28;20047;-82
2022/05/08 01:09:01;;;;;;;7.75;3.92;;;;;;;9.48;73.84;93512.22;5093972;28;20052;-81
2022/05/08 01:11:28;;;;;;;4.85;3.38;;;;;;;9.57;73.29;93517.94;5080264;28;20102;-81
2022/05/08 01:13:55;;;;;;;5.38;3.22;;;;;;;9.56;73.56;93521.50;5073876;28;20094;-82
2022/05/08 01:16:23;;;;;;;5.15;3.40;;;;;;;9.39;74.25;93510.03;5073676;28;20098;-81
2022/05/08 01:18:51;;;;;;;4.80;3.53;;;;;;;9.25;74.55;93502.28;5073776;28;20604;-82
2022/05/08 01:21:19;;;;;;;6.72;3.58;;;;;;;9.36;74.06;93519.66;5073483;28;20446;-81
2022/05/08 01:23:48;;;;;;;3.92;3.30;;;;;;;9.37;73.84;93520.47;5073835;28;20572;-82
2022/05/08 01:26:21;;;;;;;4.85;4.10;;;;;;;9.34;74.08;93520.84;5073726;28;20383;-82
2022/05/08 01:28:48;;;;;;;6.75;3.90;;;;;;;9.29;74.11;93518.06;5073637;28;20470;-81
2022/05/08 01:31:15;;;;;;;9.35;4.85;;;;;;;9.25;74.49;93519.47;5073396;28;20190;-81
2022/05/08 01:33:42;;;;;;;5.47;4.35;;;;;;;9.08;74.79;93507.78;5073384;28;20052;-82
2022/05/08 01:36:08;;;;;;;6.18;4.47;;;;;;;9.11;75.59;93526.31;5073639;28;20405;-82
2022/05/08 01:38:35;;;;;;;4.80;3.55;;;;;;;8.96;75.70;93499.06;5073501;28;20453;-83
2022/05/08 01:41:04;;;;;;;5.40;4.07;;;;;;;8.89;75.93;93506.72;5072915;28;20102;-82
2022/05/08 01:43:34;;;;;;;6.97;4.22;;;;;;;8.91;75.74;93506.53;5073139;28;20482;-82
2022/05/08 01:46:01;;;;;;;7.57;3.97;;;;;;;8.79;76.19;93517.31;5073307;28;20364;-84
2022/05/08 01:48:27;;;;;;;5.70;3.97;;;;;;;8.71;76.84;93491.09;5073045;28;20044;-82
2022/05/08 01:50:55;;;;;;;6.78;4.18;;;;;;;8.72;77.11;93513.94;5073422;28;20059;-82
2022/05/08 01:53:23;;;;;;;4.97;3.85;;;;;;;8.66;77.49;93507.03;5073158;28;20056;-83
2022/05/08 01:55:54;;;;;;;5.93;4.22;;;;;;;8.63;77.45;93508.22;5072950;28;20491;-83
2022/05/08 01:58:23;;;;;;;5.90;4.28;;;;;;;8.53;78.39;93505.19;5073001;28;20536;-83
2022/05/08 02:00:50;;;;;;;6.65;3.90;;;;;;;8.46;77.98;93484.66;5072834;28;20098;-82
2022/05/08 02:03:18;;;;;;;6.30;4.03;;;;;;;8.48;77.92;93505.72;5072932;28;20497;-83
2022/05/08 02:05:45;;;;;;;6.95;4.10;;;;;;;8.48;78.59;93500.59;5072831;28;20041;-83
2022/05/08 02:08:13;;;;;;;7.53;4.57;;;;;;;8.39;78.73;93494.84;5080151;28;20044;-83
2022/05/08 02:10:40;;;;;;;6.78;4.72;;;;;;;8.41;78.96;93505.69;5083263;28;20044;-83
2022/05/08 02:13:08;;;;;;;6.20;4.05;;;;;;;8.33;79.17;93508.41;5081960;28;20498;-84
2022/05/08 02:15:37;;;;;;;9.02;4.50;;;;;;;8.27;80.38;93509.16;5081146;28;20136;-83
2022/05/08 02:18:05;;;;;;;5.80;4.05;;;;;;;8.27;80.34;93512.50;5081710;28;20048;-84
2022/05/08 02:20:33;;;;;;;7.97;4.20;;;;;;;8.10;80.25;93480.50;5080603;28;20053;-83
2022/05/08 02:23:00;;;;;;;6.80;4.53;;;;;;;8.07;80.15;93475.75;5072713;28;20482;-83
2022/05/08 02:25:27;;;;;;;6.00;4.43;;;;;;;8.23;80.47;93506.19;5072481;28;20056;-83
2022/05/08 02:27:54;;;;;;;6.32;4.35;;;;;;;8.14;80.41;93487.63;5072181;28;20056;-82
2022/05/08 02:30:22;;;;;;;7.00;4.38;;;;;;;8.16;80.46;93503.56;5072508;28;20452;-83
2022/05/08 02:32:53;;;;;;;5.82;4.07;;;;;;;8.12;80.66;93504.13;5072093;28;20053;-83
2022/05/08 02:35:21;;;;;;;6.35;4.47;;;;;;;8.01;80.86;93505.44;5072621;28;20048;-83
2022/05/08 02:37:50;;;;;;;6.03;3.92;;;;;;;8.02;81.11;93507.81;5072250;28;20124;-83
2022/05/08 02:40:18;;;;;;;5.18;4.15;;;;;;;7.71;81.26;93462.94;5072072;28;20055;-83
2022/05/08 02:42:45;;;;;;;7.13;4.30;;;;;;;7.95;81.35;93506.97;5072061;28;20482;-83
2022/05/08 02:45:13;;;;;;;7.30;4.00;;;;;;;7.93;80.95;93496.16;5072015;28;20048;-83
2022/05/08 02:47:41;;;;;;;6.70;4.45;;;;;;;7.86;81.63;93493.53;5072182;28;20052;-82
2022/05/08 02:50:10;;;;;;;8.18;4.63;;;;;;;7.77;82.55;93492.06;5071893;28;20197;-83
2022/05/08 02:52:38;;;;;;;7.05;4.68;;;;;;;7.72;83.62;93497.75;5071612;28;20094;-83
2022/05/08 03:00:35;;;;;;;6.60;4.43;;;;;;;7.33;85.56;93473.44;5071767;28;20055;-80
2022/05/08 03:03:04;;;;;;;7.90;5.00;;;;;;;7.47;85.24;93493.03;5071723;28;20052;-81
2022/05/08 03:05:33;;;;;;;5.85;4.20;;;;;;;7.41;85.45;93501.41;5071474;28;20059;-81
2022/05/08 03:08:00;;;;;;;8.23;5.10;;;;;;;7.44;85.46;93508.72;5071723;28;20048;-82
2022/05/08 03:10:27;;;;;;;8.00;5.28;;;;;;;7.37;86.13;93502.75;5071576;28;20143;-82
2022/05/08 03:12:54;;;;;;;7.00;5.03;;;;;;;7.39;86.47;93507.66;5071375;28;20494;-81
2022/05/08 03:15:21;;;;;;;7.72;4.30;;;;;;;7.32;86.34;93507.63;5071549;28;20502;-83
2022/05/08 03:17:48;;;;;;;9.27;5.05;;;;;;;7.28;86.66;93509.75;5071406;28;20056;-82
2022/05/08 03:20:15;;;;;;;6.55;4.75;;;;;;;7.25;86.53;93515.22;5071441;28;20098;-82
2022/05/08 03:22:43;;;;;;;7.82;5.63;;;;;;;7.29;86.54;93510.53;5071291;28;20056;-82
2022/05/08 03:25:10;;;;;;;10.27;6.38;;;;;;;7.25;87.17;93509.31;5080953;28;20045;-83
2022/05/08 03:27:37;;;;;;;7.65;5.50;;;;;;;7.31;86.50;93514.50;5091392;28;20444;-82
2022/05/08 03:30:04;;;;;;;9.07;6.22;;;;;;;7.30;86.38;93523.13;5091389;28;20040;-83
2022/05/08 03:32:31;;;;;;;11.82;7.20;;;;;;;7.36;85.98;93524.16;5091242;28;20052;-82
2022/05/08 03:34:58;;;;;;;10.27;6.85;;;;;;;7.34;86.41;93524.38;5091421;28;20135;-82
2022/05/08 03:37:25;;;;;;;10.45;7.25;;;;;;;7.31;85.90;93526.50;5091350;28;20044;-82
2022/05/08 03:39:53;;;;;;;10.55;6.68;;;;;;;7.31;86.52;93529.81;5091307;28;20059;-82
2022/05/08 03:42:20;;;;;;;9.85;6.03;;;;;;;7.26;86.92;93527.03;5086470;28;20048;-82
2022/05/08 03:44:47;;;;;;;8.88;5.70;;;;;;;7.29;87.03;93534.34;5070910;28;20045;-83
2022/05/08 03:47:14;;;;;;;12.85;6.28;;;;;;;7.14;87.63;93515.69;5070899;28;20094;-82
2022/05/08 03:49:40;;;;;;;11.13;5.50;;;;;;;7.18;88.30;93529.69;5070972;28;20044;-82
2022/05/08 03:52:07;;;;;;;9.07;6.03;;;;;;;7.19;88.60;93533.84;5087250;28;20047;-82
2022/05/08 03:54:34;;;;;;;9.50;5.85;;;;;;;7.19;89.22;93544.81;5070917;28;20048;-82
2022/05/08 03:57:03;;;;;;;12.77;6.53;;;;;;;7.12;89.60;93531.19;5070993;28;20391;-82
2022/05/08 03:59:29;;;;;;;9.93;5.93;;;;;;;7.14;88.91;93526.72;5080785;28;20048;-82
2022/05/08 04:01:56;;;;;;;13.38;7.10;;;;;;;7.28;88.50;93542.19;5089819;28;20055;-82
2022/05/08 04:04:23;;;;;;;9.73;5.25;;;;;;;7.33;88.96;93552.66;5070749;28;20056;-83
2022/05/08 04:06:50;;;;;;;15.05;6.97;;;;;;;7.45;88.16;93552.97;5076787;28;20052;-82
2022/05/08 04:09:17;;;;;;;11.88;5.85;;;;;;;7.47;87.46;93545.91;5090773;28;20052;-82
2022/05/08 04:11:44;;;;;;;13.15;6.10;;;;;;;7.40;87.46;93534.84;5090904;28;20055;-83
2022/05/08 04:14:12;;;;;;;11.88;5.32;;;;;;;7.55;86.83;93553.44;5090640;28;20373;-82
2022/05/08 04:16:39;;;;;;;10.55;5.30;;;;;;;7.59;86.78;93557.22;5074144;28;20053;-82
2022/05/08 04:19:06;;;;;;;17.52;7.50;;;;;;;7.64;86.50;93556.66;5077463;28;20101;-82
2022/05/08 04:21:33;;;;;;;10.55;6.40;;;;;;;7.71;86.27;93560.09;5090922;28;20048;-82
2022/05/08 04:24:17;;;;;;;10.40;5.28;;;;;;;7.81;86.34;93558.97;5090714;28;20040;-82
2022/05/08 04:26:44;;;;;;;11.98;6.57;;;;;;;7.93;85.38;93562.66;5090635;28;20048;-83
2022/05/08 04:29:12;;;;;;;12.88;6.80;;;;;;;7.98;85.02;93567.22;5090681;28;20089;-82
2022/05/08 04:31:39;;;;;;;8.50;5.50;;;;;;;8.05;84.72;93568.03;5090857;28;20456;-82
2022/05/08 04:34:06;;;;;;;9.07;5.55;;;;;;;8.00;84.44;93555.00;5070322;28;20060;-83
2022/05/08 04:36:33;;;;;;;9.60;5.63;;;;;;;8.26;84.08;93571.56;5070604;28;20044;-83
2022/05/08 04:39:00;;;;;;;11.90;6.82;;;;;;;8.35;84.28;93572.19;5070339;28;20125;-82
2022/05/08 04:41:27;;;;;;;12.00;6.43;;;;;;;8.42;84.12;93566.16;5070417;28;20443;-82
2022/05/08 04:43:59;;;;;;;10.90;5.55;;;;;;;8.57;83.30;93567.84;5070625;28;20049;-84
2022/05/08 04:46:28;;;;;;;12.60;5.28;;;;;;;8.71;83.48;93571.28;5070535;28;20045;-83
2022/05/08 04:48:54;;;;;;;8.80;4.80;;;;;;;8.80;83.14;93564.22;5070434;28;20049;-82
2022/05/08 04:51:21;;;;;;;10.15;5.95;;;;;;;8.96;81.57;93573.38;5070323;28;20118;-82
2022/05/08 04:53:48;;;;;;;7.80;5.03;;;;;;;9.18;81.61;93568.13;5070084;28;20052;-82
2022/05/08 04:56:15;;;;;;;10.40;5.28;;;;;;;9.33;80.24;93576.47;5070321;28;20490;-82
2022/05/08 04:58:41;;;;;;;9.20;6.40;;;;;;;9.47;79.75;93571.38;5070172;28;20051;-82
2022/05/08 05:01:08;;;;;;;8.75;5.60;;;;;;;9.65;78.65;93568.25;5070178;28;20487;-83
2022/05/08 05:03:36;;;;;;;11.68;6.22;;;;;;;9.75;77.89;93553.28;5070171;28;20041;-82
2022/05/08 05:06:03;;;;;;;10.18;5.97;;;;;;;9.99;76.35;93573.41;5070076;28;20055;-82
2022/05/08 05:08:30;;;;;;;13.15;6.28;;;;;;;10.21;74.96;93574.03;5070204;28;20041;-82
2022/05/08 05:10:57;;;;;;;13.38;7.20;;;;;;;10.40;73.93;93575.00;5070433;28;20109;-82
2022/05/08 05:13:24;;;;;;;15.68;7.28;;;;;;;10.53;73.55;93581.94;5071490;28;20486;-81
2022/05/08 05:15:51;;;;;;;17.10;8.77;;;;;;;10.71;72.63;93575.38;5090254;28;20052;-81
2022/05/08 05:18:18;;;;;;;14.10;7.22;;;;;;;10.78;71.51;93568.44;5093432;28;20052;-80
2022/05/08 05:20:46;;;;;;;18.23;8.65;;;;;;;10.97;72.86;93571.16;5073587;28;20525;-81
2022/05/08 05:23:13;;;;;;;16.95;9.20;;;;;;;10.74;71.62;93504.81;5073817;28;20064;-81
2022/05/08 05:25:40;;;;;;;17.08;8.27;;;;;;;11.40;69.71;93574.16;5073555;28;20067;-81
2022/05/08 05:28:07;;;;;;;13.93;8.10;;;;;;;11.59;68.00;93573.28;5073673;28;20448;-82
2022/05/08 05:30:34;;;;;;;20.13;9.10;;;;;;;11.55;68.10;93553.31;5073460;28;20044;-81
2022/05/08 05:33:01;;;;;;;16.23;8.73;;;;;;;11.73;67.65;93571.41;5073401;28;20055;-82
2022/05/08 05:35:28;;;;;;;23.50;9.57;;;;;;;11.86;67.47;93567.19;5073280;28;20052;-82
2022/05/08 05:37:56;;;;;;;18.02;9.02;;;;;;;11.85;66.99;93568.19;5073377;28;20060;-81
2022/05/08 05:40:23;;;;;;;19.45;10.13;;;;;;;12.00;66.46;93562.72;5073506;28;20048;-81
2022/05/08 05:42:49;;;;;;;17.38;9.82;;;;;;;12.14;65.59;93548.75;5073226;28;20053;-82
2022/05/08 05:45:16;;;;;;;26.85;12.02;;;;;;;12.39;64.96;93568.59;5073182;28;20060;-81
2022/05/08 05:47:52;;;;;;;27.70;12.45;;;;;;;12.60;64.56;93558.09;5073082;28;20482;-82
2022/05/08 05:50:20;;;;;;;31.10;14.95;;;;;;;12.83;63.27;93552.31;5073085;28;20056;-82
2022/05/08 05:52:47;;;;;;;26.95;12.10;;;;;;;12.92;62.54;93561.31;5073214;28;20057;-81
2022/05/08 05:55:15;;;;;;;35.28;16.10;;;;;;;13.26;62.30;93563.53;5073466;28;20048;-82
2022/05/08 05:57:42;;;;;;;37.72;17.20;;;;;;;13.10;60.14;93546.84;5073019;28;20049;-81
2022/05/08 06:00:11;;;;;;;36.80;18.10;;;;;;;13.52;59.92;93558.28;5073163;28;20044;-82
2022/05/08 06:02:39;;;;;;;43.80;21.00;;;;;;;13.73;58.41;93557.78;5072807;28;20509;-82
2022/05/08 06:05:06;;;;;;;43.05;21.00;;;;;;;13.38;61.83;93555.06;5073305;28;20048;-82
2022/05/08 06:07:34;;;;;;;43.65;19.13;;;;;;;13.46;60.93;93549.59;5072834;28;20422;-82
2022/05/08 06:10:01;;;;;;;42.17;19.30;;;;;;;13.22;61.08;93554.66;5072636;28;20048;-82
2022/05/08 06:12:29;;;;;;;40.47;18.42;;;;;;;13.30;59.94;93549.19;5072681;28;20119;-82
2022/05/08 06:14:56;;;;;;;36.40;16.85;;;;;;;13.40;59.85;93561.56;5072489;28;20490;-82
2022/05/08 06:17:23;;;;;;;31.25;14.73;;;;;;;13.81;58.69;93556.69;5072633;28;20056;-81
2022/05/08 06:19:50;;;;;;;35.33;14.77;;;;;;;14.11;58.40;93547.28;5085296;28;20044;-82
2022/05/08 06:22:16;;;;;;;36.30;15.23;;;;;;;14.45;54.71;93555.31;5092881;28;20052;-82
2022/05/08 06:24:43;;;;;;;30.25;13.55;;;;;;;14.10;55.01;93543.94;5092781;28;20106;-83
2022/05/08 06:27:10;;;;;;;26.58;12.90;;;;;;;14.31;53.66;93549.59;5092714;28;20048;-82
2022/05/08 06:29:39;;;;;;;25.20;12.27;;;;;;;14.09;53.54;93546.75;5092517;28;20051;-82
2022/05/08 06:32:06;;;;;;;21.33;10.13;;;;;;;14.46;52.00;93536.22;5092743;28;20139;-82
2022/05/08 06:34:34;;;;;;;21.20;9.50;;;;;;;15.06;50.87;93536.94;5092375;28;20054;-81
2022/05/08 06:37:00;;;;;;;22.83;9.10;;;;;;;15.05;49.08;93526.81;5092594;28;20048;-82
2022/05/08 06:39:27;;;;;;;17.10;8.52;;;;;;;14.68;49.89;93535.63;5092528;28;20058;-81
2022/05/08 06:41:54;;;;;;;17.70;7.95;;;;;;;15.43;50.94;93535.00;5092213;28;20044;-82
2022/05/08 06:44:21;;;;;;;19.23;9.75;;;;;;;15.66;47.31;93536.72;5092496;28;20048;-82
2022/05/08 06:46:49;;;;;;;16.88;7.90;;;;;;;16.17;47.73;93530.81;5092272;28;20048;-81
2022/05/08 06:49:16;;;;;;;21.35;9.32;;;;;;;16.56;48.19;93525.66;5091510;28;20044;-82
2022/05/08 06:51:44;;;;;;;23.25;8.23;;;;;;;16.43;47.83;93526.00;5091113;28;20440;-82
2022/05/08 06:54:11;;;;;;;18.48;8.48;;;;;;;17.06;47.91;93522.41;5091920;28;20063;-82
2022/05/08 06:56:41;;;;;;;19.02;7.88;;;;;;;17.52;45.22;93522.13;5091956;28;20048;-82
2022/05/08 07:01:54;;;;;;;11.73;5.80;;;;;;;18.45;43.08;93527.28;5092017;28;20063;-83
2022/05/08 07:04:21;;;;;;;10.75;5.57;;;;;;;17.06;45.00;93532.78;5091933;28;20048;-82
2022/05/08 07:06:47;;;;;;;14.98;5.35;;;;;;;16.90;45.60;93535.16;5091839;28;20044;-83
2022/05/08 07:09:14;;;;;;;15.27;6.78;;;;;;;16.59;46.54;93523.63;5091564;28;20181;-82
2022/05/08 07:11:44;;;;;;;12.23;5.30;;;;;;;15.65;47.99;93536.94;5092006;28;20492;-82
2022/05/08 07:14:11;;;;;;;13.00;5.15;;;;;;;15.81;47.63;93527.63;5091631;28;20501;-82
2022/05/08 07:16:38;;;;;;;15.98;6.00;;;;;;;15.92;48.18;93519.00;5091860;28;20044;-83
2022/05/08 07:19:06;;;;;;;17.50;7.35;;;;;;;16.65;47.63;93523.44;5077253;28;20052;-82
2022/05/08 07:21:33;;;;;;;21.63;7.70;;;;;;;16.90;49.17;93524.78;5071384;28;20071;-82
2022/05/08 07:24:00;;;;;;;18.58;6.75;;;;;;;17.68;46.40;93525.63;5071458;28;20045;-82
2022/05/08 07:26:27;;;;;;;18.92;5.85;;;;;;;18.09;44.76;93521.84;5071500;28;20416;-82
2022/05/08 07:28:54;;;;;;;19.90;5.95;;;;;;;18.60;44.30;93518.78;5071357;28;20094;-83
2022/05/08 07:31:20;;;;;;;29.10;7.85;;;;;;;18.29;42.85;93511.59;5071155;28;20486;-82
2022/05/08 07:36:12;;;;;;;18.88;6.88;;;;;;;18.39;43.64;93503.09;5071070;28;20087;-81
2022/05/08 07:36:35;;;;;;;18.23;5.35;;;;;;;17.41;44.52;93515.25;5071094;28;20529;-82
2022/05/08 07:39:02;;;;;;;15.98;5.72;;;;;;;17.33;45.10;93516.47;5070727;28;20048;-83
2022/05/08 07:41:29;;;;;;;10.00;4.65;;;;;;;17.98;43.59;93513.94;5071109;28;20048;-83
2022/05/08 07:43:55;;;;;;;10.65;4.95;;;;;;;18.48;43.66;93505.19;5071067;28;20418;-83
2022/05/08 07:46:23;;;;;;;12.02;4.40;;;;;;;18.98;42.77;93505.69;5071001;28;20055;-84
2022/05/08 07:48:50;;;;;;;9.75;4.32;;;;;;;18.08;41.62;93509.88;5070837;28;20125;-84
2022/05/08 07:51:17;;;;;;;11.88;4.35;;;;;;;17.49;42.95;93505.22;5071127;28;20048;-84
2022/05/08 07:53:45;;;;;;;13.40;4.22;;;;;;;17.68;43.39;93473.69;5070991;28;20094;-85
2022/05/08 07:56:12;;;;;;;10.52;4.13;;;;;;;17.88;44.05;93496.44;5071028;28;20049;-84
2022/05/08 07:58:39;;;;;;;8.15;3.85;;;;;;;17.66;41.01;93508.72;5070959;28;20060;-82
2022/05/08 08:01:05;;;;;;;7.20;3.70;;;;;;;18.25;39.73;93507.94;5070774;28;20045;-81
2022/05/08 08:03:34;;;;;;;8.52;3.35;;;;;;;18.08;40.26;93479.47;5070998;28;20105;-81
2022/05/08 08:06:02;;;;;;;7.93;4.57;;;;;;;18.60;42.34;93505.00;5072630;28;20048;-82
2022/05/08 08:08:29;;;;;;;8.40;3.53;;;;;;;19.16;40.26;93498.50;5090899;28;20052;-82
2022/05/08 08:10:59;;;;;;;12.13;2.97;;;;;;;19.49;37.53;93496.50;5090892;28;20044;-82
2022/05/08 08:13:29;;;;;;;9.25;3.22;;;;;;;19.55;37.61;93492.84;5090795;28;20093;-83
2022/05/08 08:15:56;;;;;;;6.43;3.58;;;;;;;19.17;38.80;93485.19;5090713;28;20472;-82
2022/05/08 08:18:23;;;;;;;5.78;3.53;;;;;;;19.97;38.47;93480.66;5090026;28;20460;-82
2022/05/08 08:20:50;;;;;;;6.25;3.60;;;;;;;20.28;35.52;93496.25;5070617;28;20392;-82
2022/05/08 08:23:16;;;;;;;6.15;3.45;;;;;;;20.61;36.26;93493.34;5070744;28;20453;-82
2022/05/08 08:25:44;;;;;;;11.35;3.35;;;;;;;21.07;36.43;93496.84;5070625;28;20056;-82
2022/05/08 08:28:13;;;;;;;11.90;3.53;;;;;;;21.54;37.72;93491.38;5079691;28;20090;-82
2022/05/08 08:30:40;;;;;;;4.85;3.22;;;;;;;22.00;36.82;93498.13;5090754;28;20478;-82
2022/05/08 08:33:07;;;;;;;5.05;3.13;;;;;;;22.29;36.04;93495.53;5090784;28;20048;-83
2022/05/08 08:35:33;;;;;;;6.75;3.00;;;;;;;21.31;36.50;93491.00;5090765;28;20048;-82
2022/05/08 08:38:00;;;;;;;7.55;2.83;;;;;;;21.67;35.24;93479.53;5090643;28;20142;-83
2022/05/08 08:40:28;;;;;;;4.40;2.67;;;;;;;20.74;37.25;93489.38;5090590;28;20048;-83
2022/05/08 08:42:58;;;;;;;4.07;2.47;;;;;;;20.83;38.37;93479.19;5090516;28;20044;-82
2022/05/08 08:48:25;;;;;;;4.45;2.78;;;;;;;20.92;36.69;93469.00;5090667;28;20051;-80
2022/05/08 08:50:52;;;;;;;4.88;2.08;;;;;;;19.96;35.45;93491.31;5090551;28;20055;-85
2022/05/08 08:53:19;;;;;;;4.53;2.47;;;;;;;20.65;37.41;93478.69;5093999;28;20097;-81
2022/05/08 08:55:49;;;;;;;5.38;3.75;;;;;;;20.36;33.95;93479.28;5094320;28;20493;-83
2022/05/08 08:58:16;;;;;;;7.72;4.18;;;;;;;20.11;33.68;93475.69;5094428;28;20485;-82
2022/05/08 09:00:46;;;;;;;4.03;2.60;;;;;;;19.95;34.15;93468.91;5094450;28;20052;-82
2022/05/08 09:03:13;;;;;;;5.50;2.72;;;;;;;20.42;34.73;93478.22;5094332;28;20052;-83
2022/05/08 09:05:42;;;;;;;2.72;1.92;;;;;;;20.12;33.72;93463.41;5094204;28;20424;-82
2022/05/08 09:08:09;;;;;;;7.15;2.45;;;;;;;20.26;32.96;93469.66;5074561;28;20054;-82
2022/05/08 09:10:39;;;;;;;4.40;2.10;;;;;;;19.83;34.23;93453.50;5074019;28;20498;-82
2022/05/08 09:13:07;;;;;;;4.57;2.13;;;;;;;20.38;34.76;93458.97;5073974;28;20048;-82
2022/05/08 09:15:35;;;;;;;4.82;2.72;;;;;;;20.10;34.50;93466.31;5073628;28;20425;-82
2022/05/08 09:18:05;;;;;;;5.03;2.42;;;;;;;20.51;34.51;93454.22;5073792;28;20048;-82
2022/05/08 09:20:34;;;;;;;8.88;3.38;;;;;;;21.02;32.67;93462.94;5092532;28;20044;-82
2022/05/08 09:23:04;;;;;;;7.60;2.75;;;;;;;20.19;33.36;93460.53;5094117;28;20390;-82
2022/05/08 09:25:46;;;;;;;5.60;3.13;;;;;;;20.69;31.03;93456.25;5093840;28;20513;-82
2022/05/08 09:28:14;;;;;;;5.00;2.40;;;;;;;20.72;31.63;93464.56;5077314;28;20056;-81
2022/05/08 09:31:00;;;;;;;5.18;2.53;;;;;;;20.87;32.77;93467.16;5093682;28;20044;-80
2022/05/08 09:33:31;;;;;;;6.60;2.45;;;;;;;20.47;32.72;93459.19;5093677;28;20444;-81
2022/05/08 09:35:59;;;;;;;3.72;2.10;;;;;;;21.11;31.38;93463.94;5093554;28;20545;-81
2022/05/08 09:38:41;;;;;;;5.85;1.85;;;;;;;20.96;29.97;93465.56;5093119;28;20050;-84
2022/05/08 09:41:09;;;;;;;4.90;2.00;;;;;;;21.32;28.56;93451.53;5090973;28;20131;-82
2022/05/08 09:43:36;;;;;;;6.95;1.83;;;;;;;21.32;28.73;93455.97;5093612;28;20059;-82
2022/05/08 09:46:04;;;;;;;4.25;1.67;;;;;;;21.43;29.00;93448.88;5093451;28;20486;-82
2022/05/08 09:48:34;;;;;;;3.88;1.90;;;;;;;20.41;30.38;93445.38;5093388;28;20526;-83
2022/05/08 09:51:03;;;;;;;5.72;2.00;;;;;;;20.83;30.39;93450.47;5093434;28;20097;-83
2022/05/08 09:53:31;;;;;;;3.03;1.90;;;;;;;20.88;30.49;93450.44;5093289;28;20040;-82
2022/05/08 09:55:59;;;;;;;12.85;6.03;;;;;;;19.58;31.92;93449.88;5093413;28;20133;-82
2022/05/08 09:58:26;;;;;;;3.35;2.10;;;;;;;19.21;32.81;93452.41;5093102;28;20486;-83
2022/05/08 10:00:56;;;;;;;4.07;2.65;;;;;;;20.11;32.37;93438.38;5093304;28;20078;-83
2022/05/08 10:03:23;;;;;;;13.15;6.10;;;;;;;19.87;32.31;93439.69;5092833;28;20174;-84
2022/05/08 10:05:53;;;;;;;4.72;2.53;;;;;;;20.29;34.59;93437.06;5092898;28;20044;-87
2022/05/08 10:08:22;;;;;;;3.70;2.20;;;;;;;20.75;33.21;93433.53;5072685;28;20052;-82
2022/05/08 10:13:56;;;;;;;3.90;2.40;;;;;;;20.14;31.79;93428.22;5072723;28;20052;-83
2022/05/08 10:16:45;;;;;;;7.47;3.35;;;;;;;20.02;33.13;93432.94;5072662;28;20040;-83
2022/05/08 10:19:45;;;;;;;3.72;1.95;;;;;;;20.71;32.58;93427.28;5080206;28;20039;-83
2022/05/08 10:22:14;;;;;;;4.60;2.22;;;;;;;21.13;32.01;93417.44;5092794;28;20063;-83
2022/05/08 10:24:46;;;;;;;4.28;2.20;;;;;;;21.39;31.65;93382.50;5092790;28;20123;-82
2022/05/08 10:27:15;;;;;;;4.32;2.03;;;;;;;21.40;31.26;93416.22;5092771;28;20053;-83
2022/05/08 10:29:42;;;;;;;4.25;2.55;;;;;;;21.50;30.42;93417.97;5092788;28;20044;-83
2022/05/08 10:32:10;;;;;;;4.03;2.80;;;;;;;21.87;32.25;93413.25;5092671;28;20048;-83
2022/05/08 10:34:39;;;;;;;5.70;2.42;;;;;;;21.97;32.25;93412.38;5092451;28;20413;-84
2022/05/08 10:37:34;;;;;;;6.65;3.30;;;;;;;21.85;31.09;93405.69;5092422;28;20059;-86
2022/05/08 10:40:01;;;;;;;;;;;;;;;21.22;31.45;93404.56;5043665;28;20052;-85
2022/05/08 10:42:43;;;;;;;5.47;2.58;;;;;;;21.33;32.90;93376.53;5092366;28;19931;-84
2022/05/08 10:45:40;;;;;;;4.38;2.05;;;;;;;21.49;31.83;93400.72;5092313;28;20089;-84
2022/05/08 10:48:10;;;;;;;4.28;2.30;;;;;;;21.58;31.83;93400.91;5092154;28;20511;-84
2022/05/08 10:50:37;;;;;;;6.07;2.85;;;;;;;21.33;32.52;93400.03;5092209;28;20481;-84
2022/05/08 10:53:06;;;;;;;4.10;1.70;;;;;;;21.23;32.05;93396.47;5092062;28;20507;-84
2022/05/08 10:55:34;;;;;;;6.75;2.40;;;;;;;21.42;30.58;93392.44;5092233;28;20097;-88
2022/05/08 10:58:01;;;;;;;4.15;2.13;;;;;;;21.91;31.23;93392.56;5091998;28;20052;-84
2022/05/08 11:00:30;;;;;;;3.67;2.05;;;;;;;21.84;31.10;93398.13;5091887;28;20052;-85
2022/05/08 11:02:58;;;;;;;3.17;1.88;;;;;;;22.34;31.57;93389.25;5092162;28;20048;-83
2022/05/08 11:05:26;;;;;;;4.50;1.83;;;;;;;22.54;30.35;93391.66;5091868;28;20066;-83
2022/05/08 11:07:54;;;;;;;2.85;2.15;;;;;;;22.22;30.15;93387.03;5074653;28;20048;-85
2022/05/08 11:10:25;;;;;;;5.20;2.38;;;;;;;21.80;30.28;93381.44;5071931;28;20062;-84
2022/05/08 11:12:59;;;;;;;4.00;2.55;;;;;;;21.30;30.53;93388.31;5071349;28;20044;-84
2022/05/08 11:15:26;;;;;;;4.78;2.33;;;;;;;22.12;31.58;93383.44;5070966;28;20049;-83
2022/05/08 11:18:07;;;;;;;10.70;3.10;;;;;;;22.90;30.79;93364.25;5071398;28;20044;-84
2022/05/08 11:20:36;;;;;;;2.67;1.50;;;;;;;22.98;29.29;93362.81;5090624;28;20056;-84
2022/05/08 11:23:03;;;;;;;3.70;1.52;;;;;;;22.55;28.44;93369.66;5091694;28;20124;-84
2022/05/08 11:25:32;;;;;;;4.18;1.75;;;;;;;22.42;29.19;93370.31;5091329;28;20135;-83
2022/05/08 11:27:59;;;;;;;3.55;2.38;;;;;;;23.37;29.76;93360.19;5091720;28;20048;-83
2022/05/08 11:30:30;;;;;;;4.70;1.88;;;;;;;23.42;28.93;93357.50;5091707;28;20456;-83
2022/05/08 11:36:06;;;;;;;6.95;2.20;;;;;;;23.78;29.78;93345.66;5091529;28;20062;-81
2022/05/08 11:38:38;;;;;;;3.50;2.13;;;;;;;24.37;29.93;93352.97;5091539;28;20391;-82
2022/05/08 11:41:07;;;;;;;6.00;2.30;;;;;;;24.22;26.82;93348.81;5091418;28;20078;-82
2022/05/08 11:43:38;;;;;;;4.32;2.00;;;;;;;24.64;26.77;93343.50;5081012;28;20052;-85
2022/05/08 11:46:05;;;;;;;6.65;3.90;;;;;;;24.46;27.10;93337.31;5070984;28;20127;-83
2022/05/08 11:48:34;;;;;;;6.30;3.53;;;;;;;24.52;28.29;93350.03;5070845;28;20097;-84
2022/05/08 11:51:01;;;;;;;5.18;2.83;;;;;;;23.57;27.36;93359.88;5071007;28;20426;-89
2022/05/08 11:53:28;;;;;;;2.75;1.90;;;;;;;22.83;28.23;93343.63;5071046;28;20040;-84
2022/05/08 11:55:55;;;;;;;4.43;1.92;;;;;;;23.49;29.67;93344.78;5070890;28;20055;-83